Date,TemperatureHighF,TemperatureAvgF,TemperatureLowF,DewpointHighF,DewpointAvgF,DewpointLowF,HumidityHigh,HumidityAvg,HumidityLow,PressureMaxIn,PressureMinIn,WindSpeedMaxMPH,WindSpeedAvgMPH,GustSpeedMaxMPH,PrecipitationSumIn
2013-3-1,65,44,23,33,28,23,98,60,22,30.23,30.08,9,3,0,0.00
2013-3-2,64,44,27,37,32,26,98,68,35,30.37,30.14,10,2,0,0.00
2013-3-3,81,58,31,80,38,-17,99,62,2,30.14,29.72,17,6,0,0.00
2013-3-4,86,69,53,86,45,-24,99,55,2,29.73,29.58,14,5,0,0.00
2013-3-5,66,49,32,61,28,-31,99,55,2,30.31,29.71,21,8,0,0.00
2013-3-6,68,45,20,67,24,-21,99,53,3,30.36,30.09,5,2,0,0.00
2013-3-7,74,56,35,60,38,20,98,54,38,30.12,29.97,12,4,0,0.00
2013-3-8,64,61,58,63,60,57,98,98,98,30.04,29.86,15,5,0,0.00
2013-3-9,81,66,58,70,61,26,98,84,27,29.85,29.49,17,6,0,0.39
2013-3-10,59,52,41,57,39,27,98,63,42,30.02,29.70,12,4,0,0.02
2013-3-11,70,47,29,33,26,-1,84,52,6,30.09,29.90,8,2,0,0.00
2013-3-12,81,57,36,81,37,-18,99,55,2,30.23,29.93,14,4,0,0.00
2013-3-13,76,59,42,44,38,32,69,49,27,30.36,30.17,10,3,0,0.00
2013-3-14,80,62,40,52,47,39,98,63,34,30.27,30.10,13,4,0,0.00
2013-3-15,84,67,48,58,52,47,98,63,30,30.11,29.84,13,6,0,0.00
2013-3-16,91,71,54,61,56,50,98,64,31,29.85,29.57,18,7,0,0.00
2013-3-17,76,63,50,67,56,47,98,79,47,29.75,29.59,7,3,0,0.00
2013-3-18,76,62,50,59,51,46,98,72,43,29.89,29.62,13,3,0,0.00
2013-3-19,79,59,42,60,53,41,98,81,50,30.02,29.80,15,4,0,0.23
2013-3-20,72,57,42,52,42,36,98,64,26,30.22,29.95,10,3,0,0.00
2013-3-21,81,64,50,66,52,39,98,68,52,29.94,29.43,19,7,0,0.00
2013-3-22,67,57,46,64,52,41,98,87,59,29.72,29.51,10,4,0,0.00
2013-3-23,76,56,45,61,53,45,98,89,52,29.73,29.52,11,3,0,0.00
2013-3-24,55,44,30,53,30,21,98,62,33,30.13,29.74,15,6,0,0.00
2013-3-25,58,43,28,26,22,20,78,47,25,30.32,30.09,12,4,0,0.00
2013-3-26,67,46,22,28,22,-11,89,45,4,30.39,30.16,10,2,0,0.00
2013-3-27,73,57,41,52,41,27,81,55,41,30.18,29.99,26,7,0,0.00
2013-3-28,77,62,48,64,58,47,98,87,59,30.09,29.97,15,5,0,0.00
2013-3-29,79,67,56,64,61,55,98,83,56,30.07,29.94,12,5,0,0.00
2013-3-30,85,70,59,70,65,59,98,86,54,30.01,29.77,13,5,0,0.55
2013-3-31,82,70,62,70,63,58,98,81,48,29.91,29.77,11,4,0,0.01